sensor_id;sensor_type;location;lat;lon;timestamp;P1;durP1;ratioP1;P2;durP2;ratioP2
75506;SDS011;64086;43.220;27.878;2024-02-26T00:01:39;14.23;;;11.23;;
75506;SDS011;64086;43.220;27.878;2024-02-26T00:04:05;14.55;;;11.35;;
75506;SDS011;64086;43.220;27.878;2024-02-26T00:06:31;12.80;;;10.27;;
75506;SDS011;64086;43.220;27.878;2024-02-26T00:08:56;13.68;;;10.65;;
75506;SDS011;64086;43.220;27.878;2024-02-26T00:11:22;13.60;;;10.57;;
75506;SDS011;64086;43.220;27.878;2024-02-26T00:13:47;13.70;;;11.15;;
75506;SDS011;64086;43.220;27.878;2024-02-26T00:16:13;14.02;;;10.60;;
75506;SDS011;64086;43.220;27.878;2024-02-26T00:18:39;14.20;;;11.10;;
75506;SDS011;64086;43.220;27.878;2024-02-26T00:21:04;12.70;;;10.73;;
75506;SDS011;64086;43.220;27.878;2024-02-26T00:23:30;13.27;;;10.18;;
75506;SDS011;64086;43.220;27.878;2024-02-26T00:25:55;12.60;;;9.95;;
75506;SDS011;64086;43.220;27.878;2024-02-26T00:28:21;15.13;;;11.27;;
75506;SDS011;64086;43.220;27.878;2024-02-26T00:30:47;12.77;;;10.60;;
75506;SDS011;64086;43.220;27.878;2024-02-26T00:33:13;14.32;;;10.75;;
75506;SDS011;64086;43.220;27.878;2024-02-26T00:35:41;14.18;;;11.00;;
75506;SDS011;64086;43.220;27.878;2024-02-26T00:38:07;12.55;;;10.38;;
75506;SDS011;64086;43.220;27.878;2024-02-26T00:40:32;15.15;;;10.70;;
75506;SDS011;64086;43.220;27.878;2024-02-26T00:42:59;13.27;;;10.77;;
75506;SDS011;64086;43.220;27.878;2024-02-26T00:45:24;13.48;;;10.90;;
75506;SDS011;64086;43.220;27.878;2024-02-26T00:47:50;13.15;;;10.50;;
75506;SDS011;64086;43.220;27.878;2024-02-26T00:50:15;14.57;;;11.02;;
75506;SDS011;64086;43.220;27.878;2024-02-26T00:52:41;14.23;;;11.38;;
75506;SDS011;64086;43.220;27.878;2024-02-26T00:55:07;15.75;;;11.32;;
75506;SDS011;64086;43.220;27.878;2024-02-26T00:57:33;14.90;;;11.38;;
75506;SDS011;64086;43.220;27.878;2024-02-26T00:59:58;14.50;;;11.32;;
75506;SDS011;64086;43.220;27.878;2024-02-26T01:02:24;15.05;;;11.35;;
75506;SDS011;64086;43.220;27.878;2024-02-26T01:04:49;15.77;;;11.77;;
75506;SDS011;64086;43.220;27.878;2024-02-26T01:07:15;21.83;;;15.05;;
75506;SDS011;64086;43.220;27.878;2024-02-26T01:09:41;29.85;;;16.42;;
75506;SDS011;64086;43.220;27.878;2024-02-26T01:12:07;33.55;;;17.58;;
75506;SDS011;64086;43.220;27.878;2024-02-26T01:14:32;32.05;;;18.55;;
75506;SDS011;64086;43.220;27.878;2024-02-26T01:16:58;38.30;;;17.73;;
75506;SDS011;64086;43.220;27.878;2024-02-26T01:19:23;28.30;;;16.73;;
75506;SDS011;64086;43.220;27.878;2024-02-26T01:21:49;29.83;;;18.17;;
75506;SDS011;64086;43.220;27.878;2024-02-26T01:24:14;25.65;;;16.17;;
75506;SDS011;64086;43.220;27.878;2024-02-26T01:26:40;28.25;;;17.85;;
75506;SDS011;64086;43.220;27.878;2024-02-26T01:29:06;32.88;;;17.15;;
75506;SDS011;64086;43.220;27.878;2024-02-26T01:31:32;34.55;;;17.23;;
75506;SDS011;64086;43.220;27.878;2024-02-26T01:33:57;30.27;;;17.33;;
75506;SDS011;64086;43.220;27.878;2024-02-26T01:36:22;32.10;;;17.38;;
75506;SDS011;64086;43.220;27.878;2024-02-26T01:38:48;33.08;;;17.13;;
75506;SDS011;64086;43.220;27.878;2024-02-26T01:41:13;35.22;;;17.90;;
75506;SDS011;64086;43.220;27.878;2024-02-26T01:43:40;31.00;;;18.33;;
75506;SDS011;64086;43.220;27.878;2024-02-26T01:46:05;27.42;;;17.00;;
75506;SDS011;64086;43.220;27.878;2024-02-26T01:48:31;28.85;;;17.02;;
75506;SDS011;64086;43.220;27.878;2024-02-26T01:50:56;30.08;;;17.50;;
75506;SDS011;64086;43.220;27.878;2024-02-26T01:53:22;27.20;;;16.75;;
75506;SDS011;64086;43.220;27.878;2024-02-26T01:55:48;33.80;;;18.13;;
75506;SDS011;64086;43.220;27.878;2024-02-26T01:58:14;28.27;;;17.40;;
75506;SDS011;64086;43.220;27.878;2024-02-26T02:00:39;30.70;;;18.58;;
75506;SDS011;64086;43.220;27.878;2024-02-26T02:03:05;36.95;;;18.88;;
75506;SDS011;64086;43.220;27.878;2024-02-26T02:05:30;28.52;;;18.75;;
75506;SDS011;64086;43.220;27.878;2024-02-26T02:07:56;25.52;;;17.02;;
75506;SDS011;64086;43.220;27.878;2024-02-26T02:10:22;23.80;;;16.85;;
75506;SDS011;64086;43.220;27.878;2024-02-26T02:12:50;21.08;;;15.20;;
75506;SDS011;64086;43.220;27.878;2024-02-26T02:15:16;27.58;;;16.08;;
75506;SDS011;64086;43.220;27.878;2024-02-26T02:17:41;20.15;;;13.23;;
75506;SDS011;64086;43.220;27.878;2024-02-26T02:20:08;15.35;;;11.43;;
75506;SDS011;64086;43.220;27.878;2024-02-26T02:25:06;14.35;;;10.38;;
75506;SDS011;64086;43.220;27.878;2024-02-26T02:27:32;13.77;;;9.63;;
75506;SDS011;64086;43.220;27.878;2024-02-26T02:29:57;15.82;;;10.38;;
75506;SDS011;64086;43.220;27.878;2024-02-26T02:32:23;14.60;;;10.30;;
75506;SDS011;64086;43.220;27.878;2024-02-26T02:34:49;15.30;;;11.05;;
75506;SDS011;64086;43.220;27.878;2024-02-26T02:37:15;13.13;;;9.30;;
75506;SDS011;64086;43.220;27.878;2024-02-26T02:39:40;13.15;;;9.30;;
75506;SDS011;64086;43.220;27.878;2024-02-26T02:42:08;14.38;;;9.70;;
75506;SDS011;64086;43.220;27.878;2024-02-26T02:44:34;12.80;;;8.93;;
75506;SDS011;64086;43.220;27.878;2024-02-26T02:46:59;13.73;;;9.98;;
75506;SDS011;64086;43.220;27.878;2024-02-26T02:49:24;16.15;;;10.02;;
75506;SDS011;64086;43.220;27.878;2024-02-26T02:51:50;13.70;;;9.75;;
75506;SDS011;64086;43.220;27.878;2024-02-26T02:54:16;13.60;;;8.95;;
75506;SDS011;64086;43.220;27.878;2024-02-26T02:56:41;12.05;;;9.10;;
75506;SDS011;64086;43.220;27.878;2024-02-26T02:59:07;12.98;;;8.93;;
75506;SDS011;64086;43.220;27.878;2024-02-26T03:01:32;15.57;;;9.25;;
75506;SDS011;64086;43.220;27.878;2024-02-26T03:03:58;12.65;;;8.77;;
75506;SDS011;64086;43.220;27.878;2024-02-26T03:06:23;13.40;;;8.82;;
75506;SDS011;64086;43.220;27.878;2024-02-26T03:08:51;14.40;;;8.88;;
75506;SDS011;64086;43.220;27.878;2024-02-26T03:11:17;12.23;;;9.40;;
75506;SDS011;64086;43.220;27.878;2024-02-26T03:13:42;23.30;;;12.38;;
75506;SDS011;64086;43.220;27.878;2024-02-26T03:16:08;19.73;;;13.90;;
75506;SDS011;64086;43.220;27.878;2024-02-26T03:18:34;20.90;;;14.32;;
75506;SDS011;64086;43.220;27.878;2024-02-26T03:20:59;22.23;;;13.98;;
75506;SDS011;64086;43.220;27.878;2024-02-26T03:23:25;20.50;;;12.27;;
75506;SDS011;64086;43.220;27.878;2024-02-26T03:25:50;24.45;;;15.20;;
75506;SDS011;64086;43.220;27.878;2024-02-26T03:28:16;19.77;;;15.00;;
75506;SDS011;64086;43.220;27.878;2024-02-26T03:30:42;20.38;;;13.35;;
75506;SDS011;64086;43.220;27.878;2024-02-26T03:33:07;23.67;;;15.10;;
75506;SDS011;64086;43.220;27.878;2024-02-26T03:35:33;22.88;;;15.85;;
75506;SDS011;64086;43.220;27.878;2024-02-26T03:37:58;20.60;;;13.90;;
75506;SDS011;64086;43.220;27.878;2024-02-26T03:40:24;16.80;;;12.05;;
75506;SDS011;64086;43.220;27.878;2024-02-26T03:42:49;14.15;;;9.65;;
75506;SDS011;64086;43.220;27.878;2024-02-26T03:45:15;15.63;;;10.38;;
75506;SDS011;64086;43.220;27.878;2024-02-26T03:47:41;18.90;;;10.88;;
75506;SDS011;64086;43.220;27.878;2024-02-26T03:50:06;19.85;;;10.57;;
75506;SDS011;64086;43.220;27.878;2024-02-26T03:52:32;15.55;;;10.07;;
75506;SDS011;64086;43.220;27.878;2024-02-26T03:54:59;16.98;;;10.88;;
75506;SDS011;64086;43.220;27.878;2024-02-26T03:57:24;17.02;;;11.75;;
75506;SDS011;64086;43.220;27.878;2024-02-26T03:59:50;16.33;;;9.18;;
75506;SDS011;64086;43.220;27.878;2024-02-26T04:02:16;17.35;;;11.02;;
75506;SDS011;64086;43.220;27.878;2024-02-26T04:04:41;19.55;;;11.68;;
75506;SDS011;64086;43.220;27.878;2024-02-26T04:07:07;15.77;;;10.73;;
75506;SDS011;64086;43.220;27.878;2024-02-26T04:09:32;11.95;;;7.30;;
75506;SDS011;64086;43.220;27.878;2024-02-26T04:11:58;13.07;;;7.10;;
75506;SDS011;64086;43.220;27.878;2024-02-26T04:14:24;12.57;;;6.63;;
75506;SDS011;64086;43.220;27.878;2024-02-26T04:16:49;14.77;;;7.05;;
75506;SDS011;64086;43.220;27.878;2024-02-26T04:19:17;12.23;;;7.18;;
75506;SDS011;64086;43.220;27.878;2024-02-26T04:21:43;10.48;;;6.35;;
75506;SDS011;64086;43.220;27.878;2024-02-26T04:24:08;15.20;;;7.15;;
75506;SDS011;64086;43.220;27.878;2024-02-26T04:26:34;11.48;;;6.25;;
75506;SDS011;64086;43.220;27.878;2024-02-26T04:28:59;13.43;;;7.25;;
75506;SDS011;64086;43.220;27.878;2024-02-26T04:31:25;11.05;;;6.00;;
75506;SDS011;64086;43.220;27.878;2024-02-26T04:33:53;11.57;;;6.32;;
75506;SDS011;64086;43.220;27.878;2024-02-26T04:36:19;13.45;;;7.00;;
75506;SDS011;64086;43.220;27.878;2024-02-26T04:38:44;13.30;;;6.60;;
75506;SDS011;64086;43.220;27.878;2024-02-26T04:41:10;10.07;;;6.20;;
75506;SDS011;64086;43.220;27.878;2024-02-26T04:43:37;9.60;;;6.30;;
75506;SDS011;64086;43.220;27.878;2024-02-26T04:46:08;11.48;;;5.80;;
75506;SDS011;64086;43.220;27.878;2024-02-26T04:48:34;11.15;;;7.13;;
75506;SDS011;64086;43.220;27.878;2024-02-26T04:51:00;10.80;;;5.80;;
75506;SDS011;64086;43.220;27.878;2024-02-26T04:53:27;12.55;;;6.10;;
75506;SDS011;64086;43.220;27.878;2024-02-26T04:55:52;11.82;;;5.97;;
75506;SDS011;64086;43.220;27.878;2024-02-26T04:58:18;10.95;;;6.43;;
75506;SDS011;64086;43.220;27.878;2024-02-26T05:00:43;13.68;;;6.10;;
75506;SDS011;64086;43.220;27.878;2024-02-26T05:03:09;9.50;;;5.95;;
75506;SDS011;64086;43.220;27.878;2024-02-26T05:05:38;10.45;;;5.80;;
75506;SDS011;64086;43.220;27.878;2024-02-26T05:08:05;14.75;;;6.00;;
75506;SDS011;64086;43.220;27.878;2024-02-26T05:10:32;8.38;;;5.50;;
75506;SDS011;64086;43.220;27.878;2024-02-26T05:12:58;12.70;;;6.50;;
75506;SDS011;64086;43.220;27.878;2024-02-26T05:15:23;13.25;;;6.55;;
75506;SDS011;64086;43.220;27.878;2024-02-26T05:17:49;10.57;;;5.75;;
75506;SDS011;64086;43.220;27.878;2024-02-26T05:20:14;11.57;;;5.30;;
75506;SDS011;64086;43.220;27.878;2024-02-26T05:22:40;12.15;;;5.57;;
75506;SDS011;64086;43.220;27.878;2024-02-26T05:25:06;11.32;;;5.70;;
75506;SDS011;64086;43.220;27.878;2024-02-26T05:27:31;9.88;;;6.10;;
75506;SDS011;64086;43.220;27.878;2024-02-26T05:29:57;13.90;;;6.40;;
75506;SDS011;64086;43.220;27.878;2024-02-26T05:32:22;10.38;;;5.97;;
75506;SDS011;64086;43.220;27.878;2024-02-26T05:34:48;12.27;;;6.15;;
75506;SDS011;64086;43.220;27.878;2024-02-26T05:37:13;12.63;;;5.80;;
75506;SDS011;64086;43.220;27.878;2024-02-26T05:39:39;14.18;;;5.97;;
75506;SDS011;64086;43.220;27.878;2024-02-26T05:42:04;11.00;;;6.30;;
75506;SDS011;64086;43.220;27.878;2024-02-26T05:44:30;10.35;;;5.85;;
75506;SDS011;64086;43.220;27.878;2024-02-26T05:46:55;13.18;;;6.85;;
75506;SDS011;64086;43.220;27.878;2024-02-26T05:49:22;14.70;;;6.78;;
75506;SDS011;64086;43.220;27.878;2024-02-26T05:51:47;12.93;;;6.28;;
75506;SDS011;64086;43.220;27.878;2024-02-26T05:54:13;13.80;;;6.38;;
75506;SDS011;64086;43.220;27.878;2024-02-26T05:56:39;12.40;;;6.35;;
75506;SDS011;64086;43.220;27.878;2024-02-26T05:59:04;9.52;;;5.82;;
75506;SDS011;64086;43.220;27.878;2024-02-26T06:01:30;11.05;;;5.88;;
75506;SDS011;64086;43.220;27.878;2024-02-26T06:03:56;12.40;;;6.50;;
75506;SDS011;64086;43.220;27.878;2024-02-26T06:06:22;11.63;;;6.05;;
75506;SDS011;64086;43.220;27.878;2024-02-26T06:08:48;12.18;;;5.72;;
75506;SDS011;64086;43.220;27.878;2024-02-26T06:11:14;14.70;;;6.22;;
75506;SDS011;64086;43.220;27.878;2024-02-26T06:13:40;10.75;;;6.30;;
75506;SDS011;64086;43.220;27.878;2024-02-26T06:16:05;15.02;;;6.28;;
75506;SDS011;64086;43.220;27.878;2024-02-26T06:18:32;12.38;;;6.07;;
75506;SDS011;64086;43.220;27.878;2024-02-26T06:20:58;12.30;;;6.00;;
75506;SDS011;64086;43.220;27.878;2024-02-26T06:23:24;14.30;;;5.85;;
75506;SDS011;64086;43.220;27.878;2024-02-26T06:25:50;11.15;;;5.57;;
75506;SDS011;64086;43.220;27.878;2024-02-26T06:28:16;11.55;;;5.70;;
75506;SDS011;64086;43.220;27.878;2024-02-26T06:30:42;8.85;;;4.90;;
75506;SDS011;64086;43.220;27.878;2024-02-26T06:33:07;11.70;;;5.75;;
75506;SDS011;64086;43.220;27.878;2024-02-26T06:35:33;10.07;;;5.10;;
75506;SDS011;64086;43.220;27.878;2024-02-26T06:37:58;9.73;;;5.15;;
75506;SDS011;64086;43.220;27.878;2024-02-26T06:40:24;12.18;;;5.60;;
75506;SDS011;64086;43.220;27.878;2024-02-26T06:42:50;12.55;;;5.30;;
75506;SDS011;64086;43.220;27.878;2024-02-26T06:45:16;12.00;;;5.82;;
75506;SDS011;64086;43.220;27.878;2024-02-26T06:47:41;10.07;;;5.00;;
75506;SDS011;64086;43.220;27.878;2024-02-26T06:50:08;10.80;;;5.22;;
75506;SDS011;64086;43.220;27.878;2024-02-26T06:52:34;12.18;;;5.50;;
75506;SDS011;64086;43.220;27.878;2024-02-26T06:54:59;12.73;;;6.10;;
75506;SDS011;64086;43.220;27.878;2024-02-26T06:57:25;8.77;;;5.30;;
75506;SDS011;64086;43.220;27.878;2024-02-26T06:59:50;11.73;;;5.25;;
75506;SDS011;64086;43.220;27.878;2024-02-26T07:02:16;11.18;;;5.03;;
75506;SDS011;64086;43.220;27.878;2024-02-26T07:04:42;10.38;;;5.18;;
75506;SDS011;64086;43.220;27.878;2024-02-26T07:07:08;9.98;;;5.03;;
75506;SDS011;64086;43.220;27.878;2024-02-26T07:09:34;12.27;;;4.90;;
75506;SDS011;64086;43.220;27.878;2024-02-26T07:11:59;9.90;;;4.90;;
75506;SDS011;64086;43.220;27.878;2024-02-26T07:14:25;10.70;;;5.47;;
75506;SDS011;64086;43.220;27.878;2024-02-26T07:16:50;8.10;;;5.30;;
75506;SDS011;64086;43.220;27.878;2024-02-26T07:19:16;10.43;;;6.18;;
75506;SDS011;64086;43.220;27.878;2024-02-26T07:21:42;11.38;;;5.50;;
75506;SDS011;64086;43.220;27.878;2024-02-26T07:24:07;10.43;;;5.45;;
75506;SDS011;64086;43.220;27.878;2024-02-26T07:26:33;11.77;;;5.95;;
75506;SDS011;64086;43.220;27.878;2024-02-26T07:28:59;8.68;;;6.05;;
75506;SDS011;64086;43.220;27.878;2024-02-26T07:31:25;15.18;;;6.00;;
75506;SDS011;64086;43.220;27.878;2024-02-26T07:33:50;11.63;;;5.70;;
75506;SDS011;64086;43.220;27.878;2024-02-26T07:36:16;13.68;;;6.60;;
75506;SDS011;64086;43.220;27.878;2024-02-26T07:38:42;10.02;;;5.40;;
75506;SDS011;64086;43.220;27.878;2024-02-26T07:41:07;8.65;;;5.60;;
75506;SDS011;64086;43.220;27.878;2024-02-26T07:43:33;10.93;;;5.18;;
75506;SDS011;64086;43.220;27.878;2024-02-26T07:45:59;9.13;;;5.20;;
75506;SDS011;64086;43.220;27.878;2024-02-26T07:48:24;12.43;;;5.78;;
75506;SDS011;64086;43.220;27.878;2024-02-26T07:50:50;14.32;;;5.82;;
75506;SDS011;64086;43.220;27.878;2024-02-26T07:53:16;10.15;;;5.95;;
75506;SDS011;64086;43.220;27.878;2024-02-26T07:55:41;12.13;;;5.88;;
75506;SDS011;64086;43.220;27.878;2024-02-26T07:58:07;10.73;;;6.13;;
75506;SDS011;64086;43.220;27.878;2024-02-26T08:00:33;10.10;;;5.40;;
75506;SDS011;64086;43.220;27.878;2024-02-26T08:02:58;11.85;;;5.53;;
75506;SDS011;64086;43.220;27.878;2024-02-26T08:05:24;11.13;;;5.60;;
75506;SDS011;64086;43.220;27.878;2024-02-26T08:07:50;9.80;;;5.50;;
75506;SDS011;64086;43.220;27.878;2024-02-26T08:10:16;13.15;;;6.05;;
75506;SDS011;64086;43.220;27.878;2024-02-26T08:12:41;10.45;;;6.00;;
75506;SDS011;64086;43.220;27.878;2024-02-26T08:15:07;9.40;;;5.72;;
75506;SDS011;64086;43.220;27.878;2024-02-26T08:17:33;11.65;;;6.20;;
75506;SDS011;64086;43.220;27.878;2024-02-26T08:19:59;9.73;;;5.32;;
75506;SDS011;64086;43.220;27.878;2024-02-26T08:22:25;8.27;;;5.30;;
75506;SDS011;64086;43.220;27.878;2024-02-26T08:24:51;10.98;;;5.40;;
75506;SDS011;64086;43.220;27.878;2024-02-26T08:27:16;10.00;;;5.25;;
75506;SDS011;64086;43.220;27.878;2024-02-26T08:29:42;10.18;;;5.25;;
75506;SDS011;64086;43.220;27.878;2024-02-26T08:32:08;9.95;;;5.32;;
75506;SDS011;64086;43.220;27.878;2024-02-26T08:34:33;11.38;;;5.40;;
75506;SDS011;64086;43.220;27.878;2024-02-26T08:36:59;13.23;;;5.60;;
75506;SDS011;64086;43.220;27.878;2024-02-26T08:39:24;11.88;;;5.50;;
75506;SDS011;64086;43.220;27.878;2024-02-26T08:41:51;9.75;;;5.57;;
75506;SDS011;64086;43.220;27.878;2024-02-26T08:44:16;10.23;;;5.50;;
75506;SDS011;64086;43.220;27.878;2024-02-26T08:46:42;11.32;;;5.03;;
75506;SDS011;64086;43.220;27.878;2024-02-26T08:49:07;9.60;;;4.53;;
75506;SDS011;64086;43.220;27.878;2024-02-26T08:51:33;8.18;;;4.38;;
75506;SDS011;64086;43.220;27.878;2024-02-26T08:53:58;10.45;;;5.50;;
75506;SDS011;64086;43.220;27.878;2024-02-26T08:56:24;9.85;;;5.07;;
75506;SDS011;64086;43.220;27.878;2024-02-26T08:58:49;8.13;;;4.80;;
75506;SDS011;64086;43.220;27.878;2024-02-26T09:01:18;8.95;;;5.10;;
75506;SDS011;64086;43.220;27.878;2024-02-26T09:03:44;10.13;;;4.80;;
75506;SDS011;64086;43.220;27.878;2024-02-26T09:06:09;9.60;;;4.43;;
75506;SDS011;64086;43.220;27.878;2024-02-26T09:08:36;8.18;;;4.78;;
75506;SDS011;64086;43.220;27.878;2024-02-26T09:11:02;10.75;;;5.13;;
75506;SDS011;64086;43.220;27.878;2024-02-26T09:13:28;10.48;;;4.72;;
75506;SDS011;64086;43.220;27.878;2024-02-26T09:15:54;10.93;;;4.82;;
75506;SDS011;64086;43.220;27.878;2024-02-26T09:18:20;10.60;;;4.70;;
75506;SDS011;64086;43.220;27.878;2024-02-26T09:20:45;7.85;;;4.75;;
75506;SDS011;64086;43.220;27.878;2024-02-26T09:23:11;8.50;;;5.18;;
75506;SDS011;64086;43.220;27.878;2024-02-26T09:25:36;11.73;;;4.35;;
75506;SDS011;64086;43.220;27.878;2024-02-26T09:28:02;8.45;;;4.55;;
75506;SDS011;64086;43.220;27.878;2024-02-26T09:30:28;6.85;;;4.25;;
75506;SDS011;64086;43.220;27.878;2024-02-26T09:32:54;9.43;;;4.68;;
75506;SDS011;64086;43.220;27.878;2024-02-26T09:35:19;9.75;;;4.80;;
75506;SDS011;64086;43.220;27.878;2024-02-26T09:37:46;8.40;;;4.55;;
75506;SDS011;64086;43.220;27.878;2024-02-26T09:40:14;12.40;;;5.13;;
75506;SDS011;64086;43.220;27.878;2024-02-26T09:42:45;11.07;;;5.07;;
75506;SDS011;64086;43.220;27.878;2024-02-26T09:45:12;10.82;;;4.82;;
75506;SDS011;64086;43.220;27.878;2024-02-26T09:47:43;10.55;;;6.35;;
75506;SDS011;64086;43.220;27.878;2024-02-26T09:50:09;13.57;;;5.85;;
75506;SDS011;64086;43.220;27.878;2024-02-26T09:52:37;9.02;;;5.20;;
75506;SDS011;64086;43.220;27.878;2024-02-26T09:55:04;10.40;;;5.60;;
75506;SDS011;64086;43.220;27.878;2024-02-26T09:57:30;9.95;;;5.32;;
75506;SDS011;64086;43.220;27.878;2024-02-26T09:59:58;11.25;;;5.47;;
75506;SDS011;64086;43.220;27.878;2024-02-26T10:02:28;12.13;;;5.65;;
75506;SDS011;64086;43.220;27.878;2024-02-26T10:04:54;9.48;;;5.50;;
75506;SDS011;64086;43.220;27.878;2024-02-26T10:07:22;10.98;;;5.82;;
75506;SDS011;64086;43.220;27.878;2024-02-26T10:09:48;9.93;;;5.88;;
75506;SDS011;64086;43.220;27.878;2024-02-26T10:12:13;14.02;;;6.13;;
75506;SDS011;64086;43.220;27.878;2024-02-26T10:14:42;12.80;;;6.25;;
75506;SDS011;64086;43.220;27.878;2024-02-26T10:17:07;11.48;;;5.95;;
75506;SDS011;64086;43.220;27.878;2024-02-26T10:19:34;11.77;;;6.32;;
75506;SDS011;64086;43.220;27.878;2024-02-26T10:22:00;11.38;;;5.55;;
75506;SDS011;64086;43.220;27.878;2024-02-26T10:24:29;10.88;;;5.20;;
75506;SDS011;64086;43.220;27.878;2024-02-26T10:26:54;10.93;;;5.75;;
75506;SDS011;64086;43.220;27.878;2024-02-26T10:29:21;13.60;;;5.80;;
75506;SDS011;64086;43.220;27.878;2024-02-26T10:31:48;13.10;;;5.93;;
75506;SDS011;64086;43.220;27.878;2024-02-26T10:34:17;10.15;;;5.68;;
75506;SDS011;64086;43.220;27.878;2024-02-26T10:36:43;12.20;;;5.40;;
75506;SDS011;64086;43.220;27.878;2024-02-26T10:39:09;11.23;;;5.57;;
75506;SDS011;64086;43.220;27.878;2024-02-26T10:41:36;13.27;;;5.65;;
75506;SDS011;64086;43.220;27.878;2024-02-26T10:44:03;11.13;;;6.07;;
75506;SDS011;64086;43.220;27.878;2024-02-26T10:46:28;10.93;;;5.55;;
75506;SDS011;64086;43.220;27.878;2024-02-26T10:48:54;12.73;;;5.28;;
75506;SDS011;64086;43.220;27.878;2024-02-26T10:51:22;10.65;;;5.03;;
75506;SDS011;64086;43.220;27.878;2024-02-26T10:53:53;11.55;;;5.78;;
75506;SDS011;64086;43.220;27.878;2024-02-26T10:56:24;12.70;;;5.53;;
75506;SDS011;64086;43.220;27.878;2024-02-26T10:58:50;9.73;;;5.05;;
75506;SDS011;64086;43.220;27.878;2024-02-26T11:01:16;11.40;;;5.03;;
75506;SDS011;64086;43.220;27.878;2024-02-26T11:03:41;11.85;;;6.00;;
75506;SDS011;64086;43.220;27.878;2024-02-26T11:06:07;11.30;;;5.10;;
75506;SDS011;64086;43.220;27.878;2024-02-26T11:08:33;10.25;;;4.78;;
75506;SDS011;64086;43.220;27.878;2024-02-26T11:11:00;10.05;;;5.00;;
75506;SDS011;64086;43.220;27.878;2024-02-26T11:13:26;10.35;;;5.05;;
75506;SDS011;64086;43.220;27.878;2024-02-26T11:15:55;11.30;;;5.55;;
75506;SDS011;64086;43.220;27.878;2024-02-26T11:18:22;8.25;;;5.22;;
75506;SDS011;64086;43.220;27.878;2024-02-26T11:20:49;15.20;;;5.55;;
75506;SDS011;64086;43.220;27.878;2024-02-26T11:23:16;11.65;;;5.15;;
75506;SDS011;64086;43.220;27.878;2024-02-26T11:25:41;8.57;;;4.63;;
75506;SDS011;64086;43.220;27.878;2024-02-26T11:28:14;10.60;;;5.13;;
75506;SDS011;64086;43.220;27.878;2024-02-26T11:33:08;9.52;;;4.70;;
75506;SDS011;64086;43.220;27.878;2024-02-26T11:35:35;13.23;;;5.22;;
75506;SDS011;64086;43.220;27.878;2024-02-26T11:38:01;10.45;;;6.20;;
75506;SDS011;64086;43.220;27.878;2024-02-26T11:40:27;11.45;;;4.90;;
75506;SDS011;64086;43.220;27.878;2024-02-26T11:42:53;11.38;;;5.20;;
75506;SDS011;64086;43.220;27.878;2024-02-26T11:50:39;9.75;;;4.50;;
75506;SDS011;64086;43.220;27.878;2024-02-26T11:53:22;12.10;;;4.93;;
75506;SDS011;64086;43.220;27.878;2024-02-26T11:58:53;9.95;;;5.72;;
75506;SDS011;64086;43.220;27.878;2024-02-26T12:01:40;9.00;;;4.90;;
75506;SDS011;64086;43.220;27.878;2024-02-26T12:04:23;8.43;;;4.47;;
75506;SDS011;64086;43.220;27.878;2024-02-26T12:06:52;10.57;;;5.13;;
75506;SDS011;64086;43.220;27.878;2024-02-26T12:09:32;11.48;;;5.18;;
75506;SDS011;64086;43.220;27.878;2024-02-26T12:11:57;11.90;;;4.78;;
75506;SDS011;64086;43.220;27.878;2024-02-26T12:14:26;9.70;;;4.60;;
75506;SDS011;64086;43.220;27.878;2024-02-26T12:16:52;12.30;;;5.07;;
75506;SDS011;64086;43.220;27.878;2024-02-26T12:19:17;10.70;;;4.90;;
75506;SDS011;64086;43.220;27.878;2024-02-26T12:21:43;11.00;;;4.75;;
75506;SDS011;64086;43.220;27.878;2024-02-26T12:24:13;11.00;;;4.82;;
75506;SDS011;64086;43.220;27.878;2024-02-26T12:26:39;10.95;;;5.05;;
75506;SDS011;64086;43.220;27.878;2024-02-26T12:29:06;12.05;;;4.65;;
75506;SDS011;64086;43.220;27.878;2024-02-26T12:31:32;7.97;;;4.53;;
75506;SDS011;64086;43.220;27.878;2024-02-26T12:33:58;14.80;;;5.72;;
75506;SDS011;64086;43.220;27.878;2024-02-26T12:36:27;10.60;;;4.60;;
75506;SDS011;64086;43.220;27.878;2024-02-26T12:38:52;10.18;;;4.88;;
75506;SDS011;64086;43.220;27.878;2024-02-26T12:41:18;9.38;;;4.82;;
75506;SDS011;64086;43.220;27.878;2024-02-26T12:43:44;10.57;;;5.20;;
75506;SDS011;64086;43.220;27.878;2024-02-26T12:46:10;9.48;;;5.15;;
75506;SDS011;64086;43.220;27.878;2024-02-26T12:48:36;9.52;;;5.55;;
75506;SDS011;64086;43.220;27.878;2024-02-26T12:51:03;13.68;;;5.55;;
75506;SDS011;64086;43.220;27.878;2024-02-26T12:53:28;10.48;;;4.90;;
75506;SDS011;64086;43.220;27.878;2024-02-26T12:55:54;10.73;;;5.03;;
75506;SDS011;64086;43.220;27.878;2024-02-26T12:58:20;11.80;;;5.28;;
75506;SDS011;64086;43.220;27.878;2024-02-26T13:00:50;11.52;;;5.57;;
75506;SDS011;64086;43.220;27.878;2024-02-26T13:03:16;10.35;;;4.75;;
75506;SDS011;64086;43.220;27.878;2024-02-26T13:05:42;12.85;;;5.38;;
75506;SDS011;64086;43.220;27.878;2024-02-26T13:08:08;13.40;;;5.63;;
75506;SDS011;64086;43.220;27.878;2024-02-26T13:10:33;11.48;;;5.53;;
75506;SDS011;64086;43.220;27.878;2024-02-26T13:13:01;11.10;;;5.50;;
75506;SDS011;64086;43.220;27.878;2024-02-26T13:15:27;13.10;;;6.05;;
75506;SDS011;64086;43.220;27.878;2024-02-26T13:17:53;12.65;;;5.47;;
75506;SDS011;64086;43.220;27.878;2024-02-26T13:20:27;9.98;;;5.65;;
75506;SDS011;64086;43.220;27.878;2024-02-26T13:23:06;14.80;;;6.38;;
75506;SDS011;64086;43.220;27.878;2024-02-26T13:25:32;13.52;;;5.95;;
75506;SDS011;64086;43.220;27.878;2024-02-26T13:30:41;11.77;;;6.38;;
75506;SDS011;64086;43.220;27.878;2024-02-26T13:33:12;13.35;;;6.50;;
75506;SDS011;64086;43.220;27.878;2024-02-26T13:35:38;11.85;;;5.50;;
75506;SDS011;64086;43.220;27.878;2024-02-26T13:38:05;12.13;;;6.38;;
75506;SDS011;64086;43.220;27.878;2024-02-26T13:40:31;13.13;;;6.32;;
75506;SDS011;64086;43.220;27.878;2024-02-26T13:42:57;9.50;;;6.03;;
75506;SDS011;64086;43.220;27.878;2024-02-26T13:45:22;11.50;;;6.10;;
75506;SDS011;64086;43.220;27.878;2024-02-26T13:47:48;16.77;;;6.63;;
75506;SDS011;64086;43.220;27.878;2024-02-26T13:50:13;10.32;;;6.15;;
75506;SDS011;64086;43.220;27.878;2024-02-26T13:52:39;14.45;;;6.40;;
75506;SDS011;64086;43.220;27.878;2024-02-26T13:55:05;15.38;;;6.75;;
75506;SDS011;64086;43.220;27.878;2024-02-26T13:57:32;12.88;;;7.25;;
75506;SDS011;64086;43.220;27.878;2024-02-26T13:59:58;14.65;;;6.57;;
75506;SDS011;64086;43.220;27.878;2024-02-26T14:02:23;12.15;;;6.28;;
75506;SDS011;64086;43.220;27.878;2024-02-26T14:04:49;13.57;;;6.35;;
75506;SDS011;64086;43.220;27.878;2024-02-26T14:07:14;13.00;;;6.97;;
75506;SDS011;64086;43.220;27.878;2024-02-26T14:09:42;12.50;;;6.68;;
75506;SDS011;64086;43.220;27.878;2024-02-26T14:12:08;12.60;;;7.03;;
75506;SDS011;64086;43.220;27.878;2024-02-26T14:14:33;11.43;;;6.80;;
75506;SDS011;64086;43.220;27.878;2024-02-26T14:17:03;14.57;;;6.97;;
75506;SDS011;64086;43.220;27.878;2024-02-26T14:19:29;17.92;;;8.98;;
75506;SDS011;64086;43.220;27.878;2024-02-26T14:21:54;16.10;;;7.28;;
75506;SDS011;64086;43.220;27.878;2024-02-26T14:24:20;13.15;;;7.57;;
75506;SDS011;64086;43.220;27.878;2024-02-26T14:26:45;15.48;;;6.95;;
75506;SDS011;64086;43.220;27.878;2024-02-26T14:29:11;16.35;;;6.72;;
75506;SDS011;64086;43.220;27.878;2024-02-26T14:31:36;14.23;;;6.95;;